Airfield :
LOGIN :

Register | Disclaimer

   EN    FR    IT 

 










Legend :    VFR   Marginal VFR   IFR   Intensive IFR   Very Intensive IFR
Visi :
Ceiling :
>= 8 km
>= 3000ft
5 to 8 km
1000 to 3000 ft
1500m to 5 km
500 to 1000 ft
800 to 1500m
200 to 500 ft
< 800m
< 200 ft
Symbols :   Thunderstorms  Fog  Heavy snow  Heavy precipitations  Wind > 20 kt
SIGMETs :     Misc.  Thunderstorms  Icing  Turbulence  Mountain Waves  Volcanic Ashes






- Airport Elevation : 13 ft
- IATA code : CEQ


LFMD - Cannes Mandelieu

CURRENT METAR :
  • 062100Z AUTO 01003KT CAVOK 22/14 Q1017

EXPIRED METARs :
  • 062030Z AUTO 36003KT CAVOK 23/15 Q1017 NOSIG
  • 062000Z AUTO 02003KT 340V040 CAVOK 24/15 Q1017 NOSIG
  • 061930Z AUTO 36003KT 330V040 CAVOK 24/15 Q1016 NOSIG
  • 061900Z AUTO 35002KT CAVOK 25/16 Q1016 NOSIG
  • 061830Z AUTO 36002KT CAVOK 26/16 Q1016 NOSIG

TAF TAF LFMD
Valid from the 06 at 15:00 until the 07 at 15:00 UTC


061400Z 0615/0715 17008KT CAVOK
ATIS : +33 4 93 48 73 23



MET'MAP, your aeronautical weather chart ! - Copyright ORBIFLY December 2007 - Disclaimer

ORBIFLY MET'MAP TEAM :

Programming & Development : Alexandra Zaïnal
Concept & original design : Baudouin d'Aumeries
Assistance for programming : Marc-Olivier Méhu
Technical & hardware support : Manuel Goepfert

Contact : metmap@orbifly.com




SOURCES & CREDITS :

   NOAA